createdAt,value
2018-01-19T00:01:20.007Z,81.80
2018-01-19T00:03:47.462Z,80.90
2018-01-19T00:06:14.906Z,80.60
2018-01-19T00:08:42.350Z,80.60
2018-01-19T00:11:09.787Z,80.60
2018-01-19T00:13:37.230Z,80.60
2018-01-19T00:16:04.679Z,80.80
2018-01-19T00:18:32.115Z,80.80
2018-01-19T00:20:59.563Z,81.20
2018-01-19T00:23:27.003Z,81.20
2018-01-19T00:25:55.211Z,81.70
2018-01-19T00:28:22.650Z,81.70
2018-01-19T00:30:50.101Z,81.30
2018-01-19T00:33:17.746Z,81.40
2018-01-19T00:35:45.955Z,81.00
2018-01-19T00:38:13.411Z,81.00
2018-01-19T00:40:40.859Z,80.50
2018-01-19T00:43:08.294Z,80.60
2018-01-19T00:45:36.502Z,80.80
2018-01-19T00:48:03.958Z,80.80
2018-01-19T00:50:32.067Z,81.20
2018-01-19T00:52:59.511Z,80.70
2018-01-19T00:55:26.962Z,81.50
2018-01-19T00:57:54.398Z,80.80
2018-01-19T01:00:21.850Z,81.10
2018-01-19T01:02:49.305Z,81.20
2018-01-19T01:05:16.743Z,81.10
2018-01-19T01:07:44.178Z,80.90
2018-01-19T01:10:12.398Z,81.00
2018-01-19T01:12:39.834Z,81.00
2018-01-19T01:15:07.283Z,81.20
2018-01-19T01:17:34.718Z,81.90
2018-01-19T01:20:02.934Z,81.50
2018-01-19T01:22:30.390Z,81.40
2018-01-19T01:24:57.848Z,81.60
2018-01-19T01:27:25.283Z,81.30
2018-01-19T01:29:52.722Z,81.70
2018-01-19T01:32:20.936Z,82.20
2018-01-19T01:34:48.391Z,82.20
2018-01-19T01:37:15.830Z,83.50
2018-01-19T01:39:43.270Z,83.60
2018-01-19T01:42:11.502Z,83.90
2018-01-19T01:44:38.964Z,84.50
2018-01-19T01:47:06.412Z,84.20
2018-01-19T01:49:33.864Z,84.20
2018-01-19T01:52:01.304Z,84.00
2018-01-19T01:54:28.738Z,83.50
2018-01-19T01:56:56.182Z,82.60
2018-01-19T01:59:24.387Z,83.10
2018-01-19T02:01:51.848Z,83.10
2018-01-19T02:04:19.287Z,81.20
2018-01-19T02:06:46.736Z,81.60
2018-01-19T02:09:14.178Z,81.90
2018-01-19T02:11:42.400Z,82.60
2018-01-19T02:14:09.847Z,82.40
2018-01-19T02:16:37.294Z,82.90
2018-01-19T02:19:04.738Z,83.30
2018-01-19T02:21:32.182Z,84.70
2018-01-19T02:23:59.619Z,85.70
2018-01-19T02:26:27.066Z,86.80
2018-01-19T02:28:54.511Z,86.10
2018-01-19T02:31:21.966Z,86.60
2018-01-19T02:33:49.406Z,86.90
2018-01-19T02:36:16.863Z,87.50
2018-01-19T02:38:44.311Z,88.60
2018-01-19T02:41:11.755Z,89.20
2018-01-19T02:43:39.187Z,89.80
2018-01-19T02:46:06.631Z,89.60
2018-01-19T02:48:34.839Z,88.90
2018-01-19T02:51:02.283Z,88.80
2018-01-19T02:53:29.722Z,87.80
2018-01-19T02:55:57.927Z,87.10
2018-01-19T02:58:25.384Z,87.10
2018-01-19T03:00:52.834Z,87.30
2018-01-19T03:03:20.279Z,86.70
2018-01-19T03:05:47.726Z,86.90
2018-01-19T03:08:15.944Z,87.00
2018-01-19T03:10:43.927Z,87.00
2018-01-19T03:13:11.374Z,86.90
2018-01-19T03:15:38.862Z,87.00
2018-01-19T03:18:06.316Z,86.10
2018-01-19T03:20:33.760Z,86.30
2018-01-19T03:23:01.207Z,87.30
2018-01-19T03:25:28.649Z,86.90
2018-01-19T03:27:56.094Z,87.00
2018-01-19T03:30:23.756Z,86.60
2018-01-19T03:32:51.263Z,86.80
2018-01-19T03:35:19.479Z,85.70
2018-01-19T03:37:46.934Z,85.70
2018-01-19T03:40:14.392Z,86.30
2018-01-19T03:42:41.850Z,86.10
2018-01-19T03:45:09.303Z,86.30
2018-01-19T03:47:36.762Z,86.20
2018-01-19T03:50:04.215Z,85.90
2018-01-19T03:52:31.671Z,86.20
2018-01-19T03:54:59.127Z,85.20
2018-01-19T03:57:26.586Z,85.60
2018-01-19T03:59:54.047Z,84.90
2018-01-19T04:02:21.498Z,84.70
2018-01-19T04:04:48.963Z,84.80
2018-01-19T04:07:16.418Z,84.80
2018-01-19T04:09:44.087Z,84.20
2018-01-19T04:12:11.567Z,84.40
2018-01-19T04:14:39.248Z,84.10
2018-01-19T04:17:06.683Z,84.40
2018-01-19T04:19:34.347Z,84.10
2018-01-19T04:22:01.800Z,83.90
2018-01-19T04:24:29.475Z,83.10
2018-01-19T04:26:56.991Z,83.60
2018-01-19T04:29:24.515Z,83.40
2018-01-19T04:31:52.007Z,82.90
2018-01-19T04:34:19.463Z,82.50
2018-01-19T04:36:46.915Z,82.80
2018-01-19T04:39:14.375Z,82.60
2018-01-19T04:41:41.818Z,83.70
2018-01-19T04:44:09.489Z,83.00
2018-01-19T04:46:36.942Z,82.70
2018-01-19T04:49:04.409Z,82.20
2018-01-19T04:51:31.893Z,82.80
2018-01-19T04:53:59.431Z,82.50
2018-01-19T04:56:26.896Z,82.40
2018-01-19T04:58:54.399Z,82.80
2018-01-19T05:01:21.870Z,82.90
2018-01-19T05:03:49.363Z,83.00
2018-01-19T05:06:16.814Z,82.90
2018-01-19T05:08:44.270Z,83.30
2018-01-19T05:11:11.728Z,82.80
2018-01-19T05:13:39.178Z,82.90
2018-01-19T05:16:06.635Z,82.40
2018-01-19T05:18:34.091Z,82.10
2018-01-19T05:21:01.551Z,82.20
2018-01-19T05:23:29.218Z,82.50
2018-01-19T05:25:56.675Z,81.50
2018-01-19T05:28:24.123Z,82.60
2018-01-19T05:30:51.576Z,81.40
2018-01-19T05:33:19.015Z,81.80
2018-01-19T05:35:46.467Z,81.10
2018-01-19T05:38:13.923Z,81.60
2018-01-19T05:40:41.378Z,81.40
2018-01-19T05:43:08.823Z,80.30
2018-01-19T05:45:36.265Z,80.10
2018-01-19T05:48:03.706Z,80.70
2018-01-19T05:50:32.262Z,80.50
2018-01-19T05:52:59.695Z,80.50
2018-01-19T05:55:27.146Z,80.40
2018-01-19T05:57:54.596Z,80.50
2018-01-19T06:00:22.039Z,81.00
2018-01-19T06:02:49.492Z,80.80
2018-01-19T06:05:16.942Z,80.40
2018-01-19T06:07:44.378Z,80.80
2018-01-19T06:10:12.599Z,80.60
2018-01-19T06:12:40.038Z,80.00
2018-01-19T06:15:07.484Z,80.70
2018-01-19T06:17:35.708Z,80.30
2018-01-19T06:20:03.163Z,80.30
2018-01-19T06:22:30.618Z,80.90
2018-01-19T06:24:58.078Z,80.60
2018-01-19T06:27:25.536Z,81.10
2018-01-19T06:29:52.978Z,81.10
2018-01-19T06:32:20.420Z,81.30
2018-01-19T06:34:47.887Z,81.90
2018-01-19T06:37:15.330Z,81.20
2018-01-19T06:39:42.776Z,80.60
2018-01-19T06:42:10.231Z,80.00
2018-01-19T06:44:37.672Z,77.80
2018-01-19T06:47:05.892Z,76.80
2018-01-19T06:49:33.335Z,76.90
2018-01-19T06:52:00.808Z,76.30
2018-01-19T06:54:28.256Z,75.90
2018-01-19T06:56:55.718Z,75.40
2018-01-19T06:59:23.179Z,76.10
2018-01-19T07:01:50.630Z,76.00
2018-01-19T07:04:18.086Z,75.40
2018-01-19T07:06:45.542Z,76.50
2018-01-19T07:09:12.998Z,75.70
2018-01-19T07:11:40.551Z,76.30
2018-01-19T07:14:08.018Z,76.80
2018-01-19T07:16:35.487Z,76.30
2018-01-19T07:19:02.943Z,76.90
2018-01-19T07:21:30.404Z,76.60
2018-01-19T07:23:57.938Z,76.40
2018-01-19T07:26:25.404Z,76.50
2018-01-19T07:28:52.867Z,77.30
2018-01-19T07:31:20.317Z,77.30
2018-01-19T07:33:47.766Z,76.90
2018-01-19T07:36:15.214Z,75.80
2018-01-19T07:38:42.681Z,76.40
2018-01-19T07:41:10.127Z,74.90
2018-01-19T07:43:37.579Z,74.60
2018-01-19T07:46:05.023Z,74.40
2018-01-19T07:48:32.480Z,73.70
2018-01-19T07:51:00.698Z,72.20
2018-01-19T07:53:28.371Z,72.30
2018-01-19T07:55:55.819Z,73.40
2018-01-19T07:58:23.272Z,73.10
2018-01-19T08:00:50.707Z,71.50
2018-01-19T08:03:18.159Z,70.90
2018-01-19T08:05:45.616Z,70.90
2018-01-19T08:08:13.079Z,70.70
2018-01-19T08:10:40.535Z,71.30
2018-01-19T08:13:07.975Z,71.50
2018-01-19T08:15:35.423Z,69.60
2018-01-19T08:18:02.878Z,68.70
2018-01-19T08:20:30.732Z,69.10
2018-01-19T08:22:58.167Z,68.20
2018-01-19T08:25:26.387Z,68.70
2018-01-19T08:27:53.851Z,68.70
2018-01-19T08:30:21.303Z,68.50
2018-01-19T08:32:48.776Z,68.10
2018-01-19T08:35:16.218Z,68.30
2018-01-19T08:37:43.683Z,68.80
2018-01-19T08:40:11.138Z,67.90
2018-01-19T08:42:38.595Z,67.30
2018-01-19T08:45:06.059Z,67.20
2018-01-19T08:47:33.507Z,66.60
2018-01-19T08:50:00.955Z,67.90
2018-01-19T08:52:28.407Z,67.60
2018-01-19T08:54:55.857Z,66.40
2018-01-19T08:57:23.311Z,66.50
2018-01-19T08:59:50.775Z,65.80
2018-01-19T09:02:18.215Z,65.30
2018-01-19T09:04:45.668Z,65.90
2018-01-19T09:07:13.127Z,66.20
2018-01-19T09:09:40.582Z,66.80
2018-01-19T09:12:08.040Z,66.60
2018-01-19T09:14:35.492Z,66.80
2018-01-19T09:17:02.931Z,67.30
2018-01-19T09:19:30.382Z,66.70
2018-01-19T09:21:57.819Z,66.00
2018-01-19T09:24:26.039Z,63.70
2018-01-19T09:26:53.901Z,64.40
2018-01-19T09:29:21.351Z,64.80
2018-01-19T09:31:48.790Z,65.20
2018-01-19T09:34:16.236Z,63.40
2018-01-19T09:36:44.442Z,63.30
2018-01-19T09:39:11.895Z,63.30
2018-01-19T09:41:39.351Z,63.20
2018-01-19T09:44:06.808Z,63.00
2018-01-19T09:46:34.250Z,62.60
2018-01-19T09:49:01.699Z,61.00
2018-01-19T09:51:29.139Z,59.50
2018-01-19T09:53:57.352Z,59.40
2018-01-19T09:56:24.810Z,59.30
2018-01-19T09:58:52.263Z,58.70
2018-01-19T10:01:19.709Z,57.70
2018-01-19T10:03:47.139Z,54.40
2018-01-19T10:06:15.359Z,55.90
2018-01-19T10:08:42.802Z,55.80
2018-01-19T10:11:10.263Z,54.30
2018-01-19T10:13:37.722Z,53.50
2018-01-19T10:16:05.170Z,52.60
2018-01-19T10:18:32.615Z,51.50
2018-01-19T10:21:00.078Z,52.80
2018-01-19T10:23:27.519Z,51.00
2018-01-19T10:25:54.977Z,49.90
2018-01-19T10:28:22.418Z,50.70
2018-01-19T10:30:50.631Z,47.80
2018-01-19T10:33:18.086Z,47.80
2018-01-19T10:35:45.536Z,49.20
2018-01-19T10:38:12.979Z,47.30
2018-01-19T10:40:40.430Z,45.80
2018-01-19T10:43:07.878Z,47.70
2018-01-19T10:45:36.103Z,50.40
2018-01-19T10:48:03.539Z,50.40
2018-01-19T10:50:31.539Z,51.10
2018-01-19T10:52:58.983Z,51.50
2018-01-19T10:55:26.450Z,48.70
2018-01-19T10:57:53.906Z,45.50
2018-01-19T11:00:21.370Z,45.00
2018-01-19T11:02:48.827Z,47.60
2018-01-19T11:05:16.275Z,49.60
2018-01-19T11:07:43.722Z,51.70
2018-01-19T11:10:11.174Z,51.90
2018-01-19T11:12:38.622Z,52.60
2018-01-19T11:15:06.069Z,54.00
2018-01-19T11:17:33.522Z,55.00
2018-01-19T11:20:00.978Z,54.70
2018-01-19T11:22:28.431Z,53.60
2018-01-19T11:24:55.891Z,50.30
2018-01-19T11:27:23.346Z,48.80
2018-01-19T11:29:50.803Z,47.10
2018-01-19T11:32:18.260Z,47.00
2018-01-19T11:34:45.714Z,47.60
2018-01-19T11:37:13.174Z,47.10
2018-01-19T11:39:40.611Z,49.50
2018-01-19T11:42:08.070Z,49.90
2018-01-19T11:44:35.543Z,49.10
2018-01-19T11:47:02.994Z,49.60
2018-01-19T11:49:30.446Z,51.30
2018-01-19T11:51:57.908Z,51.60
2018-01-19T11:54:25.343Z,53.30
2018-01-19T11:56:52.791Z,54.20
2018-01-19T11:59:20.231Z,55.70
2018-01-19T12:01:48.462Z,56.60
2018-01-19T12:04:15.925Z,56.60
2018-01-19T12:06:43.372Z,57.20
2018-01-19T12:09:10.837Z,58.50
2018-01-19T12:11:38.283Z,58.70
2018-01-19T12:14:05.735Z,59.50
2018-01-19T12:16:33.195Z,60.80
2018-01-19T12:19:00.639Z,61.30
2018-01-19T12:21:28.132Z,60.80
2018-01-19T12:23:59.516Z,61.50
2018-01-19T12:26:27.720Z,61.50
2018-01-19T12:28:55.178Z,61.50
2018-01-19T12:31:22.630Z,61.20
2018-01-19T12:33:50.090Z,61.70
2018-01-19T12:36:17.542Z,60.60
2018-01-19T12:38:44.998Z,61.90
2018-01-19T12:41:12.455Z,60.90
2018-01-19T12:43:39.911Z,60.70
2018-01-19T12:46:07.352Z,59.80
2018-01-19T12:48:34.816Z,58.70
2018-01-19T12:51:02.247Z,58.40
2018-01-19T12:53:29.715Z,57.00
2018-01-19T12:55:57.153Z,53.60
2018-01-19T12:58:25.363Z,48.00
2018-01-19T13:00:52.794Z,47.90
2018-01-19T13:03:20.238Z,48.20
2018-01-19T13:05:48.451Z,49.80
2018-01-19T13:08:15.903Z,49.80
2018-01-19T13:10:43.339Z,49.20
2018-01-19T13:13:10.791Z,51.60
2018-01-19T13:15:38.235Z,52.70
2018-01-19T13:18:05.682Z,54.00
2018-01-19T13:20:33.123Z,53.10
2018-01-19T13:23:00.575Z,52.70
2018-01-19T13:25:28.006Z,52.70
2018-01-19T13:27:55.451Z,51.90
2018-01-19T13:30:22.886Z,52.80
2018-01-19T13:32:50.326Z,52.40
2018-01-19T13:35:18.547Z,53.40
2018-01-19T13:37:45.978Z,53.40
2018-01-19T13:40:13.448Z,53.50
2018-01-19T13:42:40.883Z,54.30
2018-01-19T13:45:08.326Z,53.90
2018-01-19T13:47:36.531Z,53.70
2018-01-19T13:50:03.987Z,53.70
2018-01-19T13:52:31.430Z,53.80
2018-01-19T13:54:58.875Z,53.70
2018-01-19T13:57:26.315Z,54.80
2018-01-19T13:59:53.763Z,54.70
2018-01-19T14:02:21.203Z,55.10
2018-01-19T14:04:48.663Z,55.10
2018-01-19T14:07:16.102Z,54.80
2018-01-19T14:09:43.548Z,55.90
2018-01-19T14:12:10.992Z,56.40
2018-01-19T14:14:38.523Z,55.60
2018-01-19T14:17:06.735Z,55.70
2018-01-19T14:19:34.183Z,55.70
2018-01-19T14:22:01.793Z,56.00
2018-01-19T14:24:30.022Z,57.40
2018-01-19T14:26:57.467Z,57.40
2018-01-19T14:29:24.920Z,57.80
2018-01-19T14:31:52.352Z,58.40
2018-01-19T14:34:19.849Z,57.30
2018-01-19T14:36:48.011Z,56.80
2018-01-19T14:39:15.469Z,56.90
2018-01-19T14:41:42.916Z,57.60
2018-01-19T14:44:10.354Z,57.40
2018-01-19T14:46:37.790Z,57.10
2018-01-19T14:49:05.230Z,57.10
2018-01-19T14:51:32.682Z,57.60
2018-01-19T14:54:00.127Z,57.60
2018-01-19T14:56:27.578Z,57.00
2018-01-19T14:58:55.015Z,57.90
2018-01-19T15:01:22.520Z,58.60
2018-01-19T15:03:49.967Z,58.30
2018-01-19T15:06:17.418Z,58.80
2018-01-19T15:08:44.851Z,59.50
2018-01-19T15:11:12.300Z,59.10
2018-01-19T15:13:39.751Z,59.30
2018-01-19T15:16:07.206Z,59.20
2018-01-19T15:18:34.686Z,59.40
2018-01-19T15:21:02.139Z,60.20
2018-01-19T15:23:29.587Z,61.50
2018-01-19T15:25:57.060Z,64.00
2018-01-19T15:28:24.514Z,65.40
2018-01-19T15:30:51.966Z,69.50
2018-01-19T15:33:19.419Z,74.10
2018-01-19T15:35:46.874Z,76.20
2018-01-19T15:38:14.314Z,78.40
2018-01-19T15:40:41.779Z,78.50
2018-01-19T15:43:09.223Z,79.90
2018-01-19T15:45:36.680Z,80.70
2018-01-19T15:48:04.136Z,81.70
2018-01-19T15:50:31.591Z,82.00
2018-01-19T15:52:59.019Z,82.80
2018-01-19T15:55:27.239Z,82.20
2018-01-19T15:57:54.679Z,82.20
2018-01-19T16:00:22.182Z,82.20
2018-01-19T16:02:49.611Z,83.10
2018-01-19T16:05:17.062Z,83.80
2018-01-19T16:07:44.627Z,84.30
2018-01-19T16:10:12.075Z,84.00
2018-01-19T16:12:39.541Z,84.70
2018-01-19T16:15:06.989Z,84.90
2018-01-19T16:17:34.431Z,85.10
2018-01-19T16:20:01.883Z,85.20
2018-01-19T16:22:30.099Z,86.30
2018-01-19T16:24:57.546Z,86.10
2018-01-19T16:27:25.014Z,87.00
2018-01-19T16:29:52.462Z,87.50
2018-01-19T16:32:19.918Z,87.80
2018-01-19T16:34:47.374Z,87.60
2018-01-19T16:37:14.848Z,87.60
2018-01-19T16:39:42.291Z,87.80
2018-01-19T16:42:09.740Z,87.60
2018-01-19T16:44:37.184Z,88.20
2018-01-19T16:47:04.635Z,87.70
2018-01-19T16:49:49.184Z,88.30
2018-01-19T16:52:16.632Z,88.70
2018-01-19T16:54:44.071Z,88.00
2018-01-19T16:57:11.716Z,87.50
2018-01-19T16:59:41.293Z,88.40
2018-01-19T17:02:10.488Z,88.90
2018-01-19T17:04:38.030Z,88.00
2018-01-19T17:07:05.486Z,88.40
2018-01-19T17:09:32.964Z,89.00
2018-01-19T17:12:00.454Z,88.40
2018-01-19T17:14:28.679Z,89.40
2018-01-19T17:16:56.143Z,89.30
2018-01-19T17:19:23.603Z,89.90
2018-01-19T17:21:51.059Z,88.10
2018-01-19T17:24:18.514Z,88.40
2018-01-19T17:26:45.975Z,88.00
2018-01-19T17:29:13.427Z,88.20
2018-01-19T17:31:40.882Z,87.90
2018-01-19T17:34:08.335Z,88.70
2018-01-19T17:36:35.790Z,89.50
2018-01-19T17:39:03.364Z,90.30
2018-01-19T17:41:31.645Z,90.20
2018-01-19T17:43:59.115Z,90.20
2018-01-19T17:46:27.442Z,90.10
2018-01-19T17:48:54.955Z,90.20
2018-01-19T17:51:23.187Z,90.20
2018-01-19T17:53:50.649Z,90.30
2018-01-19T17:56:18.308Z,90.00
2018-01-19T17:58:45.756Z,90.20
2018-01-19T18:01:13.436Z,90.40
2018-01-19T18:03:40.896Z,90.30
2018-01-19T18:06:08.347Z,90.40
2018-01-19T18:08:35.814Z,90.70
2018-01-19T18:11:03.270Z,90.60
2018-01-19T18:13:30.729Z,90.60
2018-01-19T18:15:58.168Z,90.80
2018-01-19T18:18:25.622Z,90.80
2018-01-19T18:20:53.078Z,91.00
2018-01-19T18:23:20.551Z,91.10
2018-01-19T18:25:47.990Z,91.00
2018-01-19T18:28:15.453Z,91.20
2018-01-19T18:30:42.923Z,91.10
2018-01-19T18:33:10.374Z,91.10
2018-01-19T18:35:37.823Z,91.20
2018-01-19T18:38:05.292Z,91.10
2018-01-19T18:40:32.743Z,91.00
2018-01-19T18:43:00.199Z,91.10
2018-01-19T18:45:27.662Z,91.10
2018-01-19T18:47:55.895Z,91.30
2018-01-19T18:50:23.358Z,91.30
2018-01-19T18:52:50.806Z,91.50
2018-01-19T18:55:18.314Z,91.60
2018-01-19T18:57:45.767Z,91.90
2018-01-19T19:00:14.007Z,92.20
2018-01-19T19:02:41.483Z,92.20
2018-01-19T19:05:08.942Z,92.10
2018-01-19T19:07:36.793Z,91.90
2018-01-19T19:10:04.251Z,91.80
2018-01-19T19:12:31.711Z,91.80
2018-01-19T19:14:59.296Z,91.80
2018-01-19T19:17:27.304Z,91.80
2018-01-19T19:19:55.730Z,91.90
2018-01-19T19:22:23.226Z,92.00
2018-01-19T19:24:50.732Z,92.10
2018-01-19T19:27:18.233Z,91.90
2018-01-19T19:29:45.747Z,91.90
2018-01-19T19:32:13.203Z,92.00
2018-01-19T19:34:40.668Z,92.20
2018-01-19T19:37:08.175Z,92.20
2018-01-19T19:39:35.636Z,92.00
2018-01-19T19:42:03.858Z,92.30
2018-01-19T19:44:32.928Z,92.00
2018-01-19T19:47:00.434Z,92.00
2018-01-19T19:49:27.958Z,92.10
2018-01-19T19:51:55.407Z,92.40
2018-01-19T19:54:22.904Z,92.50
2018-01-19T19:56:51.170Z,92.50
2018-01-19T19:59:19.383Z,92.60
2018-01-19T20:01:46.851Z,92.60
2018-01-19T20:04:14.310Z,92.30
2018-01-19T20:06:41.767Z,92.40
2018-01-19T20:09:09.219Z,92.60
2018-01-19T20:11:36.676Z,92.50
2018-01-19T20:14:04.187Z,92.50
2018-01-19T20:16:32.461Z,92.80
2018-01-19T20:19:00.666Z,92.90
2018-01-19T20:21:28.172Z,92.80
2018-01-19T20:23:55.670Z,93.00
2018-01-19T20:26:23.594Z,93.00
2018-01-19T20:28:51.051Z,93.10
2018-01-19T20:31:18.545Z,92.90
2018-01-19T20:33:45.980Z,92.80
2018-01-19T20:36:14.259Z,93.00
2018-01-19T20:38:42.529Z,93.00
2018-01-19T20:41:10.763Z,93.10
2018-01-19T20:43:38.218Z,93.00
2018-01-19T20:46:05.698Z,93.20
2018-01-19T20:48:33.199Z,93.20
2018-01-19T20:51:00.646Z,93.20
2018-01-19T20:53:28.141Z,93.20
2018-01-19T20:55:55.603Z,93.20
2018-01-19T20:58:23.107Z,93.30
2018-01-19T21:00:51.382Z,93.40
2018-01-19T21:03:19.645Z,93.40
2018-01-19T21:05:47.862Z,93.40
2018-01-19T21:08:15.382Z,93.40
2018-01-19T21:10:43.661Z,93.40
2018-01-19T21:13:11.892Z,93.50
2018-01-19T21:15:39.339Z,93.50
2018-01-19T21:18:06.858Z,93.50
2018-01-19T21:20:34.354Z,93.50
2018-01-19T21:23:01.857Z,93.30
2018-01-19T21:25:30.118Z,93.30
2018-01-19T21:27:57.546Z,93.30
2018-01-19T21:30:25.050Z,93.10
2018-01-19T21:32:53.284Z,93.30
2018-01-19T21:35:20.787Z,93.30
2018-01-19T21:37:48.290Z,93.10
2018-01-19T21:40:16.140Z,93.00
2018-01-19T21:42:43.644Z,92.80
2018-01-19T21:45:11.087Z,92.90
2018-01-19T21:47:38.624Z,93.10
2018-01-19T21:50:06.122Z,93.20
2018-01-19T21:52:33.653Z,93.30
2018-01-19T21:55:01.534Z,93.40
2018-01-19T21:57:28.983Z,93.50
2018-01-19T21:59:56.428Z,93.50
2018-01-19T22:02:23.945Z,93.70
2018-01-19T22:04:51.439Z,93.70
2018-01-19T22:07:18.950Z,93.70
2018-01-19T22:09:47.177Z,93.70
2018-01-19T22:12:14.640Z,93.70
2018-01-19T22:14:42.134Z,93.50
2018-01-19T22:17:10.346Z,93.80
2018-01-19T22:19:37.859Z,93.80
2018-01-19T22:22:06.130Z,93.80
2018-01-19T22:24:34.691Z,93.80
2018-01-19T22:27:02.206Z,93.80
2018-01-19T22:29:29.708Z,93.80
2018-01-19T22:31:57.162Z,93.80
2018-01-19T22:34:24.652Z,93.90
2018-01-19T22:36:53.223Z,93.80
2018-01-19T22:39:21.459Z,93.90
2018-01-19T22:41:48.976Z,93.90
2018-01-19T22:44:16.486Z,93.90
2018-01-19T22:46:43.973Z,93.90
2018-01-19T22:49:12.242Z,94.10
2018-01-19T22:51:40.522Z,94.10
2018-01-19T22:54:08.118Z,94.10
2018-01-19T22:56:35.635Z,94.20
2018-01-19T22:59:05.726Z,94.20
2018-01-19T23:01:33.532Z,94.20
2018-01-19T23:04:01.139Z,94.00
2018-01-19T23:06:28.681Z,94.00
2018-01-19T23:08:56.200Z,94.00
2018-01-19T23:11:23.706Z,93.90
2018-01-19T23:13:51.255Z,93.50
2018-01-19T23:16:19.112Z,93.90
2018-01-19T23:18:46.581Z,93.70
2018-01-19T23:21:14.301Z,93.60
2018-01-19T23:23:42.638Z,93.70
2018-01-19T23:26:10.230Z,93.70
2018-01-19T23:28:38.529Z,93.90
2018-01-19T23:31:06.063Z,93.90
2018-01-19T23:33:34.295Z,94.00
2018-01-19T23:36:01.752Z,94.00
2018-01-19T23:38:29.503Z,94.00
2018-01-19T23:40:56.990Z,93.90
2018-01-19T23:43:24.481Z,93.90
2018-01-19T23:45:52.698Z,93.60
2018-01-19T23:48:20.146Z,93.60
2018-01-19T23:50:47.659Z,93.30
2018-01-19T23:53:15.923Z,92.90
2018-01-19T23:55:44.591Z,92.60
2018-01-19T23:58:12.075Z,92.60
